Aérodrome :
LOGIN :

S'inscrire | Disclaimer

   EN    FR    IT 

 










Légende :    VFR   VFR Marginal   IFR   IFR Intensif   IFR Très Intensif
Visi : 
Plafond : 
>= 8 km
>= 3000ft
5 à 8 km
1000 à 3000 ft
1500m à 5 km
500 à 1000 ft
800 à 1500m
200 à 500 ft
< 800m
< 200 ft
Symboles :   Orages  Brouillard  Fortes neiges  Fortes précipitations  Vent > 20 kt
SIGMETs :   Divers  Orages  Givrage  Turbulence  Onde Orograph.  Cendres Volcan.







- Altitude de l'aérodrome : 463 ft
- Code IATA : SZY
- AEROPORT FERMÉ.


EPSY - Szczytno

DERNIER METAR :
  • 261600Z 32013KT 280V360 8000 -SHRASN SCT025TCU 02/M03 Q1013

METARs EXPIRÉS :
  • 261530Z 32015KT 290V360 9999 SCT041TCU 03/M04 Q1012
  • 261500Z 31011KT 9999 SCT026TCU 03/M02 Q1012
  • 261430Z 33012KT 300V360 9999 SCT025CB 03/M02 Q1011
  • 261400Z 28005KT 230V010 9999 SCT007 BKN020 02/01 Q1011
  • 261330Z 28003KT 200V360 9999 -SHRASN FEW009 SCT014CB BKN035 02/01 Q1011

TAF TAF EPSY
Valide du 26 à 15h jusqu'au 27 à 00h UTC


261430Z 2615/2624 30008KT CAVOK
TEMPO 2615/2620 -SHRASN BKN025TCU
Pas de NOTAMs connus pour ce terrain.
2 SIGMETs publiés pour la FIR Warszawa (EPWW) :
 
Orages noyés dans la masse
EPWW SIGMET 3 VALID 261510/261600 EPWA
EPWW WARSAW FIR EMBD TS OBS WI N5130 E02330 - N5140 E01910 - N5240 E01910 - N5300 E02340 - N5220 E02310 - N5130 E02330 TOP FL280 MOV S NC=
Annulation du SIGMET 1 
EPWW SIGMET 2 VALID 261510/261520 EPWA
EPWW WARSAW FIR CNL SIGMET 1 261240/261540=



MET'MAP, la Météo Aéronautique d'un coup d'oeil ! - Copyright ORBIFLY Décembre 2007 - Disclaimer

ORBIFLY MET'MAP TEAM :

Programmation & Développement : Alexandra Zaïnal
Conception & Développement : Baudouin d'Aumeries
Co-Programmation & Développement : Marc-Olivier Méhu
Soutien technique & logistique : Manuel Goepfert

Contact : metmap@orbifly.com




SOURCES & CREDITS :

   NOAA